KPUC/PUC METAR and TAF weather

Enter ICAO airport designator
Station Type Date Time Source
KPUC METAR 2021/07/24 19:53 UTC NOAA

KPUC 241953Z AUTO VRB05KT 10SM CLR 32/06 A3021 RMK AO2 SLP124 T03170056


Station Type Date Time Source
KPUC Decoded METAR 2021/07/24 19:53 UTC NOAA

PRICE CARBON COUNTY AIRPORT, UT, United States (KPUC) 39-37N 110-45W 2091M
Jul 24, 2021 - 03:53 PM EDT / 2021.07.24 1953 UTC
Wind: Variable at 6 MPH (5 KT):0
Visibility: 10 mile(s):0
Sky conditions: clear
Temperature: 89.1 F (31.7 C)
Dew Point: 42.1 F (5.6 C)
Relative Humidity: 19%
Pressure (altimeter): 30.21 in. Hg (1023 hPa)
ob: KPUC 241953Z AUTO VRB05KT 10SM CLR 32/06 A3021 RMK AO2 SLP124 T03170056
cycle: 20

Station Type Date Time Source
KPUC TAF UTC NOAA

Error!

Example: see airport list